sensor_id;sensor_type;location;lat;lon;timestamp;temperature;humidity
3492;DHT22;1760;52.480;13.422;2023-09-12T00:00:47;22.20;99.90
3492;DHT22;1760;52.480;13.422;2023-09-12T00:03:14;22.20;99.90
3492;DHT22;1760;52.480;13.422;2023-09-12T00:05:41;22.10;99.90
3492;DHT22;1760;52.480;13.422;2023-09-12T00:08:08;22.10;99.90
3492;DHT22;1760;52.480;13.422;2023-09-12T00:10:35;22.00;99.90
3492;DHT22;1760;52.480;13.422;2023-09-12T00:13:02;22.00;99.90
3492;DHT22;1760;52.480;13.422;2023-09-12T00:15:29;22.00;99.90
3492;DHT22;1760;52.480;13.422;2023-09-12T00:17:58;22.00;99.90
3492;DHT22;1760;52.480;13.422;2023-09-12T00:20:25;22.00;99.90
3492;DHT22;1760;52.480;13.422;2023-09-12T00:22:52;22.00;99.90
3492;DHT22;1760;52.480;13.422;2023-09-12T00:25:20;21.90;99.90
3492;DHT22;1760;52.480;13.422;2023-09-12T00:27:47;21.90;99.90
3492;DHT22;1760;52.480;13.422;2023-09-12T00:30:14;21.90;99.90
3492;DHT22;1760;52.480;13.422;2023-09-12T00:32:41;21.90;99.90
3492;DHT22;1760;52.480;13.422;2023-09-12T00:35:09;21.80;99.90
3492;DHT22;1760;52.480;13.422;2023-09-12T00:37:36;21.80;99.90
3492;DHT22;1760;52.480;13.422;2023-09-12T00:40:04;21.80;99.90
3492;DHT22;1760;52.480;13.422;2023-09-12T00:42:31;21.80;99.90
3492;DHT22;1760;52.480;13.422;2023-09-12T00:44:58;21.80;99.90
3492;DHT22;1760;52.480;13.422;2023-09-12T00:47:26;21.70;99.90
3492;DHT22;1760;52.480;13.422;2023-09-12T00:49:55;21.70;99.90
3492;DHT22;1760;52.480;13.422;2023-09-12T00:52:24;21.70;99.90
3492;DHT22;1760;52.480;13.422;2023-09-12T00:54:52;21.70;99.90
3492;DHT22;1760;52.480;13.422;2023-09-12T00:57:19;21.70;99.90
3492;DHT22;1760;52.480;13.422;2023-09-12T00:59:47;21.70;99.90
3492;DHT22;1760;52.480;13.422;2023-09-12T01:02:14;21.70;99.90
3492;DHT22;1760;52.480;13.422;2023-09-12T01:04:41;21.70;99.90
3492;DHT22;1760;52.480;13.422;2023-09-12T01:07:08;21.70;99.90
3492;DHT22;1760;52.480;13.422;2023-09-12T01:09:37;21.70;99.90
3492;DHT22;1760;52.480;13.422;2023-09-12T01:12:04;21.70;99.90
3492;DHT22;1760;52.480;13.422;2023-09-12T01:14:32;21.70;99.90
3492;DHT22;1760;52.480;13.422;2023-09-12T01:16:59;21.60;99.90
3492;DHT22;1760;52.480;13.422;2023-09-12T01:19:27;21.60;99.90
3492;DHT22;1760;52.480;13.422;2023-09-12T01:25:17;21.60;99.90
3492;DHT22;1760;52.480;13.422;2023-09-12T01:27:51;21.50;99.90
3492;DHT22;1760;52.480;13.422;2023-09-12T01:30:21;21.50;99.90
3492;DHT22;1760;52.480;13.422;2023-09-12T01:32:49;21.50;99.90
3492;DHT22;1760;52.480;13.422;2023-09-12T01:35:17;21.50;99.90
3492;DHT22;1760;52.480;13.422;2023-09-12T01:37:44;21.50;99.90
3492;DHT22;1760;52.480;13.422;2023-09-12T01:40:11;21.40;99.90
3492;DHT22;1760;52.480;13.422;2023-09-12T01:42:41;21.40;99.90
3492;DHT22;1760;52.480;13.422;2023-09-12T01:45:13;21.40;99.90
3492;DHT22;1760;52.480;13.422;2023-09-12T01:47:41;21.40;99.90
3492;DHT22;1760;52.480;13.422;2023-09-12T01:50:09;21.30;99.90
3492;DHT22;1760;52.480;13.422;2023-09-12T01:52:38;21.30;99.90
3492;DHT22;1760;52.480;13.422;2023-09-12T01:55:06;21.30;99.90
3492;DHT22;1760;52.480;13.422;2023-09-12T01:57:34;21.30;99.90
3492;DHT22;1760;52.480;13.422;2023-09-12T02:00:02;21.30;99.90
3492;DHT22;1760;52.480;13.422;2023-09-12T02:02:31;21.30;99.90
3492;DHT22;1760;52.480;13.422;2023-09-12T02:05:06;21.40;99.90
3492;DHT22;1760;52.480;13.422;2023-09-12T02:07:39;21.30;99.90
3492;DHT22;1760;52.480;13.422;2023-09-12T02:10:07;21.30;99.90
3492;DHT22;1760;52.480;13.422;2023-09-12T02:12:35;21.30;99.90
3492;DHT22;1760;52.480;13.422;2023-09-12T02:15:03;21.20;99.90
3492;DHT22;1760;52.480;13.422;2023-09-12T02:17:31;21.20;99.90
3492;DHT22;1760;52.480;13.422;2023-09-12T02:19:58;21.20;99.90
3492;DHT22;1760;52.480;13.422;2023-09-12T02:22:25;21.20;99.90
3492;DHT22;1760;52.480;13.422;2023-09-12T02:24:52;21.20;99.90
3492;DHT22;1760;52.480;13.422;2023-09-12T02:27:18;21.20;99.90
3492;DHT22;1760;52.480;13.422;2023-09-12T02:29:45;21.20;99.90
3492;DHT22;1760;52.480;13.422;2023-09-12T02:32:12;21.20;99.90
3492;DHT22;1760;52.480;13.422;2023-09-12T02:34:41;21.10;99.90
3492;DHT22;1760;52.480;13.422;2023-09-12T02:37:07;21.10;99.90
3492;DHT22;1760;52.480;13.422;2023-09-12T02:39:34;21.10;99.90
3492;DHT22;1760;52.480;13.422;2023-09-12T02:42:01;21.10;99.90
3492;DHT22;1760;52.480;13.422;2023-09-12T02:44:28;21.10;99.90
3492;DHT22;1760;52.480;13.422;2023-09-12T02:46:55;21.10;99.90
3492;DHT22;1760;52.480;13.422;2023-09-12T02:49:22;21.10;99.90
3492;DHT22;1760;52.480;13.422;2023-09-12T02:51:50;21.00;99.90
3492;DHT22;1760;52.480;13.422;2023-09-12T02:54:17;21.00;99.90
3492;DHT22;1760;52.480;13.422;2023-09-12T02:56:44;21.00;99.90
3492;DHT22;1760;52.480;13.422;2023-09-12T02:59:11;20.90;99.90
3492;DHT22;1760;52.480;13.422;2023-09-12T03:01:39;20.90;99.90
3492;DHT22;1760;52.480;13.422;2023-09-12T03:04:06;20.90;99.90
3492;DHT22;1760;52.480;13.422;2023-09-12T03:06:33;20.90;99.90
3492;DHT22;1760;52.480;13.422;2023-09-12T03:09:02;21.00;99.90
3492;DHT22;1760;52.480;13.422;2023-09-12T03:11:30;21.00;99.90
3492;DHT22;1760;52.480;13.422;2023-09-12T03:13:57;21.00;99.90
3492;DHT22;1760;52.480;13.422;2023-09-12T03:16:23;21.00;99.90
3492;DHT22;1760;52.480;13.422;2023-09-12T03:18:53;21.00;99.90
3492;DHT22;1760;52.480;13.422;2023-09-12T03:21:20;21.00;99.90
3492;DHT22;1760;52.480;13.422;2023-09-12T03:23:46;21.00;99.90
3492;DHT22;1760;52.480;13.422;2023-09-12T03:26:15;21.00;99.90
3492;DHT22;1760;52.480;13.422;2023-09-12T03:28:42;21.00;99.90
3492;DHT22;1760;52.480;13.422;2023-09-12T03:31:11;21.00;99.90
3492;DHT22;1760;52.480;13.422;2023-09-12T03:33:39;21.00;99.90
3492;DHT22;1760;52.480;13.422;2023-09-12T03:36:06;21.00;99.90
3492;DHT22;1760;52.480;13.422;2023-09-12T03:38:33;21.00;99.90
3492;DHT22;1760;52.480;13.422;2023-09-12T03:41:00;21.00;99.90
3492;DHT22;1760;52.480;13.422;2023-09-12T03:43:29;21.00;99.90
3492;DHT22;1760;52.480;13.422;2023-09-12T03:45:56;20.90;99.90
3492;DHT22;1760;52.480;13.422;2023-09-12T03:48:23;20.90;99.90
3492;DHT22;1760;52.480;13.422;2023-09-12T03:50:50;20.90;99.90
3492;DHT22;1760;52.480;13.422;2023-09-12T03:53:17;20.90;99.90
3492;DHT22;1760;52.480;13.422;2023-09-12T03:55:44;20.90;99.90
3492;DHT22;1760;52.480;13.422;2023-09-12T03:58:11;20.90;99.90
3492;DHT22;1760;52.480;13.422;2023-09-12T04:00:39;20.90;99.90
3492;DHT22;1760;52.480;13.422;2023-09-12T04:03:06;20.80;99.90
3492;DHT22;1760;52.480;13.422;2023-09-12T04:05:33;20.80;99.90
3492;DHT22;1760;52.480;13.422;2023-09-12T04:08:00;20.80;99.90
3492;DHT22;1760;52.480;13.422;2023-09-12T04:10:27;20.80;99.90
3492;DHT22;1760;52.480;13.422;2023-09-12T04:12:54;20.80;99.90
3492;DHT22;1760;52.480;13.422;2023-09-12T04:15:21;20.80;99.90
3492;DHT22;1760;52.480;13.422;2023-09-12T04:17:49;20.70;99.90
3492;DHT22;1760;52.480;13.422;2023-09-12T04:20:16;20.70;99.90
3492;DHT22;1760;52.480;13.422;2023-09-12T04:22:43;20.60;99.90
3492;DHT22;1760;52.480;13.422;2023-09-12T04:25:10;20.60;99.90
3492;DHT22;1760;52.480;13.422;2023-09-12T04:27:36;20.60;99.90
3492;DHT22;1760;52.480;13.422;2023-09-12T04:30:04;20.50;99.90
3492;DHT22;1760;52.480;13.422;2023-09-12T04:32:31;20.50;99.90
3492;DHT22;1760;52.480;13.422;2023-09-12T04:35:00;20.50;99.90
3492;DHT22;1760;52.480;13.422;2023-09-12T04:37:27;20.50;99.90
3492;DHT22;1760;52.480;13.422;2023-09-12T04:39:53;20.50;99.90
3492;DHT22;1760;52.480;13.422;2023-09-12T04:42:21;20.50;99.90
3492;DHT22;1760;52.480;13.422;2023-09-12T04:44:48;20.40;99.90
3492;DHT22;1760;52.480;13.422;2023-09-12T04:47:15;20.50;99.90
3492;DHT22;1760;52.480;13.422;2023-09-12T04:49:43;20.50;99.90
3492;DHT22;1760;52.480;13.422;2023-09-12T04:52:12;20.50;99.90
3492;DHT22;1760;52.480;13.422;2023-09-12T04:54:38;20.60;99.90
3492;DHT22;1760;52.480;13.422;2023-09-12T04:57:05;20.60;99.90
3492;DHT22;1760;52.480;13.422;2023-09-12T04:59:32;20.60;99.90
3492;DHT22;1760;52.480;13.422;2023-09-12T05:02:02;20.60;99.90
3492;DHT22;1760;52.480;13.422;2023-09-12T05:04:29;20.70;99.90
3492;DHT22;1760;52.480;13.422;2023-09-12T05:06:56;20.70;99.90
3492;DHT22;1760;52.480;13.422;2023-09-12T05:09:24;20.70;99.90
3492;DHT22;1760;52.480;13.422;2023-09-12T05:11:51;20.80;99.90
3492;DHT22;1760;52.480;13.422;2023-09-12T05:14:18;20.80;99.90
3492;DHT22;1760;52.480;13.422;2023-09-12T05:16:45;21.00;99.90
3492;DHT22;1760;52.480;13.422;2023-09-12T05:19:11;20.90;99.90
3492;DHT22;1760;52.480;13.422;2023-09-12T05:21:38;20.90;99.90
3492;DHT22;1760;52.480;13.422;2023-09-12T05:24:05;20.90;99.90
3492;DHT22;1760;52.480;13.422;2023-09-12T05:26:34;20.90;99.90
3492;DHT22;1760;52.480;13.422;2023-09-12T05:29:01;20.90;99.90
3492;DHT22;1760;52.480;13.422;2023-09-12T05:31:27;21.00;99.90
3492;DHT22;1760;52.480;13.422;2023-09-12T05:33:54;21.00;99.90
3492;DHT22;1760;52.480;13.422;2023-09-12T05:36:21;21.00;99.90
3492;DHT22;1760;52.480;13.422;2023-09-12T05:38:48;21.10;99.90
3492;DHT22;1760;52.480;13.422;2023-09-12T05:41:15;21.10;99.90
3492;DHT22;1760;52.480;13.422;2023-09-12T05:43:43;21.20;99.90
3492;DHT22;1760;52.480;13.422;2023-09-12T05:46:10;21.20;99.90
3492;DHT22;1760;52.480;13.422;2023-09-12T05:48:37;21.20;99.90
3492;DHT22;1760;52.480;13.422;2023-09-12T05:51:04;21.30;99.90
3492;DHT22;1760;52.480;13.422;2023-09-12T05:53:31;21.30;99.90
3492;DHT22;1760;52.480;13.422;2023-09-12T05:55:57;21.30;99.90
3492;DHT22;1760;52.480;13.422;2023-09-12T05:58:24;21.40;99.90
3492;DHT22;1760;52.480;13.422;2023-09-12T06:00:52;21.30;99.90
3492;DHT22;1760;52.480;13.422;2023-09-12T06:03:19;21.30;99.90
3492;DHT22;1760;52.480;13.422;2023-09-12T06:05:46;21.40;99.90
3492;DHT22;1760;52.480;13.422;2023-09-12T06:08:13;21.40;99.90
3492;DHT22;1760;52.480;13.422;2023-09-12T06:10:40;21.40;99.90
3492;DHT22;1760;52.480;13.422;2023-09-12T06:13:07;21.40;99.90
3492;DHT22;1760;52.480;13.422;2023-09-12T06:15:35;21.50;99.90
3492;DHT22;1760;52.480;13.422;2023-09-12T06:18:04;21.50;99.90
3492;DHT22;1760;52.480;13.422;2023-09-12T06:20:31;21.60;99.90
3492;DHT22;1760;52.480;13.422;2023-09-12T06:22:58;21.60;99.90
3492;DHT22;1760;52.480;13.422;2023-09-12T06:25:25;21.70;99.90
3492;DHT22;1760;52.480;13.422;2023-09-12T06:27:52;21.70;99.90
3492;DHT22;1760;52.480;13.422;2023-09-12T06:30:19;21.70;99.90
3492;DHT22;1760;52.480;13.422;2023-09-12T06:32:46;21.70;99.90
3492;DHT22;1760;52.480;13.422;2023-09-12T06:35:14;21.70;99.90
3492;DHT22;1760;52.480;13.422;2023-09-12T06:37:41;21.80;99.90
3492;DHT22;1760;52.480;13.422;2023-09-12T06:40:08;21.70;99.90
3492;DHT22;1760;52.480;13.422;2023-09-12T06:42:35;21.90;99.90
3492;DHT22;1760;52.480;13.422;2023-09-12T06:45:02;22.00;99.90
3492;DHT22;1760;52.480;13.422;2023-09-12T06:47:29;22.10;99.90
3492;DHT22;1760;52.480;13.422;2023-09-12T06:49:58;22.10;99.90
3492;DHT22;1760;52.480;13.422;2023-09-12T06:52:26;22.30;99.90
3492;DHT22;1760;52.480;13.422;2023-09-12T06:54:53;22.40;99.90
3492;DHT22;1760;52.480;13.422;2023-09-12T06:57:20;22.40;99.90
3492;DHT22;1760;52.480;13.422;2023-09-12T06:59:46;22.50;99.90
3492;DHT22;1760;52.480;13.422;2023-09-12T07:02:14;22.60;99.90
3492;DHT22;1760;52.480;13.422;2023-09-12T07:04:43;22.70;99.90
3492;DHT22;1760;52.480;13.422;2023-09-12T07:07:10;22.70;99.90
3492;DHT22;1760;52.480;13.422;2023-09-12T07:09:38;22.90;99.90
3492;DHT22;1760;52.480;13.422;2023-09-12T07:12:06;22.90;99.90
3492;DHT22;1760;52.480;13.422;2023-09-12T07:14:33;23.00;99.90
3492;DHT22;1760;52.480;13.422;2023-09-12T07:17:00;23.10;99.90
3492;DHT22;1760;52.480;13.422;2023-09-12T07:19:27;24.60;99.90
3492;DHT22;1760;52.480;13.422;2023-09-12T07:21:55;23.40;99.90
3492;DHT22;1760;52.480;13.422;2023-09-12T07:24:24;23.50;99.90
3492;DHT22;1760;52.480;13.422;2023-09-12T07:26:53;23.50;99.90
3492;DHT22;1760;52.480;13.422;2023-09-12T07:29:22;23.60;99.90
3492;DHT22;1760;52.480;13.422;2023-09-12T07:31:52;23.70;99.90
3492;DHT22;1760;52.480;13.422;2023-09-12T07:34:19;23.80;99.90
3492;DHT22;1760;52.480;13.422;2023-09-12T07:36:46;23.90;99.90
3492;DHT22;1760;52.480;13.422;2023-09-12T07:39:13;24.00;99.90
3492;DHT22;1760;52.480;13.422;2023-09-12T07:41:40;24.10;99.90
3492;DHT22;1760;52.480;13.422;2023-09-12T07:44:08;24.20;99.90
3492;DHT22;1760;52.480;13.422;2023-09-12T07:46:36;24.30;99.90
3492;DHT22;1760;52.480;13.422;2023-09-12T07:49:03;24.40;99.90
3492;DHT22;1760;52.480;13.422;2023-09-12T07:51:30;24.50;99.90
3492;DHT22;1760;52.480;13.422;2023-09-12T07:53:59;24.60;99.90
3492;DHT22;1760;52.480;13.422;2023-09-12T07:56:26;24.70;99.90
3492;DHT22;1760;52.480;13.422;2023-09-12T07:58:53;24.90;99.90
3492;DHT22;1760;52.480;13.422;2023-09-12T08:01:22;25.00;99.90
3492;DHT22;1760;52.480;13.422;2023-09-12T08:03:49;25.10;99.90
3492;DHT22;1760;52.480;13.422;2023-09-12T08:06:16;25.30;99.90
3492;DHT22;1760;52.480;13.422;2023-09-12T08:08:43;25.50;99.90
3492;DHT22;1760;52.480;13.422;2023-09-12T08:11:10;25.60;99.90
3492;DHT22;1760;52.480;13.422;2023-09-12T08:13:37;26.10;99.90
3492;DHT22;1760;52.480;13.422;2023-09-12T08:16:06;27.10;99.90
3492;DHT22;1760;52.480;13.422;2023-09-12T08:18:35;28.70;99.90
3492;DHT22;1760;52.480;13.422;2023-09-12T08:21:02;30.30;99.90
3492;DHT22;1760;52.480;13.422;2023-09-12T08:23:29;32.00;97.40
3492;DHT22;1760;52.480;13.422;2023-09-12T08:25:56;33.60;91.80
3492;DHT22;1760;52.480;13.422;2023-09-12T08:28:23;35.00;80.20
3492;DHT22;1760;52.480;13.422;2023-09-12T08:30:50;36.00;72.60
3492;DHT22;1760;52.480;13.422;2023-09-12T08:33:17;36.40;64.30
3492;DHT22;1760;52.480;13.422;2023-09-12T08:35:45;36.60;62.20
3492;DHT22;1760;52.480;13.422;2023-09-12T08:38:12;37.20;59.60
3492;DHT22;1760;52.480;13.422;2023-09-12T08:40:39;37.70;57.50
3492;DHT22;1760;52.480;13.422;2023-09-12T08:43:06;38.20;56.10
3492;DHT22;1760;52.480;13.422;2023-09-12T08:45:35;38.60;54.60
3492;DHT22;1760;52.480;13.422;2023-09-12T08:48:04;38.70;54.30
3492;DHT22;1760;52.480;13.422;2023-09-12T08:50:31;38.60;53.70
3492;DHT22;1760;52.480;13.422;2023-09-12T08:53:01;38.50;53.60
3492;DHT22;1760;52.480;13.422;2023-09-12T08:55:28;38.30;53.70
3492;DHT22;1760;52.480;13.422;2023-09-12T08:57:56;38.40;53.00
3492;DHT22;1760;52.480;13.422;2023-09-12T09:00:24;38.30;52.80
3492;DHT22;1760;52.480;13.422;2023-09-12T09:02:53;38.30;52.40
3492;DHT22;1760;52.480;13.422;2023-09-12T09:05:21;38.20;51.90
3492;DHT22;1760;52.480;13.422;2023-09-12T09:07:49;38.20;51.10
3492;DHT22;1760;52.480;13.422;2023-09-12T09:10:21;38.30;50.80
3492;DHT22;1760;52.480;13.422;2023-09-12T09:12:50;38.20;50.70
3492;DHT22;1760;52.480;13.422;2023-09-12T09:15:21;38.30;50.20
3492;DHT22;1760;52.480;13.422;2023-09-12T09:17:48;38.20;50.20
3492;DHT22;1760;52.480;13.422;2023-09-12T09:20:22;38.10;51.00
3492;DHT22;1760;52.480;13.422;2023-09-12T09:22:57;37.90;51.20
3492;DHT22;1760;52.480;13.422;2023-09-12T09:25:26;37.70;51.70
3492;DHT22;1760;52.480;13.422;2023-09-12T09:27:53;37.60;52.20
3492;DHT22;1760;52.480;13.422;2023-09-12T09:30:39;37.40;52.50
3492;DHT22;1760;52.480;13.422;2023-09-12T09:33:06;37.50;53.00
3492;DHT22;1760;52.480;13.422;2023-09-12T09:35:34;37.20;53.30
3492;DHT22;1760;52.480;13.422;2023-09-12T09:38:01;36.80;53.80
3492;DHT22;1760;52.480;13.422;2023-09-12T09:40:31;36.60;54.00
3492;DHT22;1760;52.480;13.422;2023-09-12T09:42:59;36.50;54.70
3492;DHT22;1760;52.480;13.422;2023-09-12T09:45:27;36.60;55.20
3492;DHT22;1760;52.480;13.422;2023-09-12T09:47:57;36.70;55.10
3492;DHT22;1760;52.480;13.422;2023-09-12T09:50:25;36.80;55.10
3492;DHT22;1760;52.480;13.422;2023-09-12T09:52:54;36.80;55.00
3492;DHT22;1760;52.480;13.422;2023-09-12T09:55:23;36.90;55.80
3492;DHT22;1760;52.480;13.422;2023-09-12T09:57:51;36.70;56.70
3492;DHT22;1760;52.480;13.422;2023-09-12T10:00:20;36.50;56.90
3492;DHT22;1760;52.480;13.422;2023-09-12T10:02:50;36.50;57.40
3492;DHT22;1760;52.480;13.422;2023-09-12T10:05:18;36.60;56.80
3492;DHT22;1760;52.480;13.422;2023-09-12T10:07:47;36.90;57.40
3492;DHT22;1760;52.480;13.422;2023-09-12T10:10:17;36.70;56.30
3492;DHT22;1760;52.480;13.422;2023-09-12T10:12:50;36.40;57.20
3492;DHT22;1760;52.480;13.422;2023-09-12T10:15:20;35.80;57.70
3492;DHT22;1760;52.480;13.422;2023-09-12T10:17:55;35.50;58.60
3492;DHT22;1760;52.480;13.422;2023-09-12T10:20:25;35.40;58.90
3492;DHT22;1760;52.480;13.422;2023-09-12T10:23:02;35.60;58.60
3492;DHT22;1760;52.480;13.422;2023-09-12T10:25:35;35.50;59.00
3492;DHT22;1760;52.480;13.422;2023-09-12T10:28:04;35.40;59.70
3492;DHT22;1760;52.480;13.422;2023-09-12T10:30:33;35.30;59.30
3492;DHT22;1760;52.480;13.422;2023-09-12T10:33:02;35.30;59.70
3492;DHT22;1760;52.480;13.422;2023-09-12T10:35:30;35.20;59.70
3492;DHT22;1760;52.480;13.422;2023-09-12T10:38:00;35.20;60.30
3492;DHT22;1760;52.480;13.422;2023-09-12T10:40:29;35.20;60.00
3492;DHT22;1760;52.480;13.422;2023-09-12T10:42:57;35.10;60.20
3492;DHT22;1760;52.480;13.422;2023-09-12T10:45:27;35.10;61.20
3492;DHT22;1760;52.480;13.422;2023-09-12T10:47:56;35.00;61.60
3492;DHT22;1760;52.480;13.422;2023-09-12T10:50:23;34.80;60.80
3492;DHT22;1760;52.480;13.422;2023-09-12T10:52:50;34.50;61.30
3492;DHT22;1760;52.480;13.422;2023-09-12T10:55:17;34.30;61.90
3492;DHT22;1760;52.480;13.422;2023-09-12T10:58:01;34.00;62.20
3492;DHT22;1760;52.480;13.422;2023-09-12T11:00:28;33.80;62.80
3492;DHT22;1760;52.480;13.422;2023-09-12T11:03:35;33.60;63.80
3492;DHT22;1760;52.480;13.422;2023-09-12T11:06:19;33.40;62.60
3492;DHT22;1760;52.480;13.422;2023-09-12T11:09:15;33.10;63.40
3492;DHT22;1760;52.480;13.422;2023-09-12T11:11:45;33.10;63.70
3492;DHT22;1760;52.480;13.422;2023-09-12T11:14:13;33.00;63.50
3492;DHT22;1760;52.480;13.422;2023-09-12T11:16:41;32.90;64.40
3492;DHT22;1760;52.480;13.422;2023-09-12T11:19:20;32.90;65.10
3492;DHT22;1760;52.480;13.422;2023-09-12T11:21:50;32.80;64.80
3492;DHT22;1760;52.480;13.422;2023-09-12T11:24:18;32.70;65.70
3492;DHT22;1760;52.480;13.422;2023-09-12T11:26:58;32.60;66.10
3492;DHT22;1760;52.480;13.422;2023-09-12T11:29:33;32.50;66.00
3492;DHT22;1760;52.480;13.422;2023-09-12T11:32:02;32.30;66.70
3492;DHT22;1760;52.480;13.422;2023-09-12T11:34:36;32.20;67.30
3492;DHT22;1760;52.480;13.422;2023-09-12T11:37:04;32.20;67.80
3492;DHT22;1760;52.480;13.422;2023-09-12T11:39:32;32.10;68.30
3492;DHT22;1760;52.480;13.422;2023-09-12T11:42:00;32.00;68.50
3492;DHT22;1760;52.480;13.422;2023-09-12T11:44:28;32.00;68.90
3492;DHT22;1760;52.480;13.422;2023-09-12T11:46:58;31.90;69.00
3492;DHT22;1760;52.480;13.422;2023-09-12T11:49:35;31.80;69.20
3492;DHT22;1760;52.480;13.422;2023-09-12T11:52:02;31.60;70.50
3492;DHT22;1760;52.480;13.422;2023-09-12T11:54:30;31.60;71.00
3492;DHT22;1760;52.480;13.422;2023-09-12T11:56:57;31.50;70.80
3492;DHT22;1760;52.480;13.422;2023-09-12T11:59:26;31.50;70.80
3492;DHT22;1760;52.480;13.422;2023-09-12T12:01:53;31.50;71.20
3492;DHT22;1760;52.480;13.422;2023-09-12T12:04:20;31.50;70.50
3492;DHT22;1760;52.480;13.422;2023-09-12T12:06:50;31.40;71.50
3492;DHT22;1760;52.480;13.422;2023-09-12T12:09:18;31.40;72.10
3492;DHT22;1760;52.480;13.422;2023-09-12T12:11:46;31.30;72.40
3492;DHT22;1760;52.480;13.422;2023-09-12T12:14:15;31.20;72.20
3492;DHT22;1760;52.480;13.422;2023-09-12T12:16:42;31.10;72.70
3492;DHT22;1760;52.480;13.422;2023-09-12T12:19:10;30.90;73.20
3492;DHT22;1760;52.480;13.422;2023-09-12T12:21:40;30.90;73.40
3492;DHT22;1760;52.480;13.422;2023-09-12T12:24:10;30.90;74.20
3492;DHT22;1760;52.480;13.422;2023-09-12T12:26:40;31.00;73.50
3492;DHT22;1760;52.480;13.422;2023-09-12T12:29:07;31.10;73.10
3492;DHT22;1760;52.480;13.422;2023-09-12T12:31:34;31.10;73.80
3492;DHT22;1760;52.480;13.422;2023-09-12T12:34:01;31.10;72.90
3492;DHT22;1760;52.480;13.422;2023-09-12T12:36:29;31.10;73.60
3492;DHT22;1760;52.480;13.422;2023-09-12T12:38:56;31.20;73.70
3492;DHT22;1760;52.480;13.422;2023-09-12T12:41:29;31.10;74.30
3492;DHT22;1760;52.480;13.422;2023-09-12T12:43:57;31.20;74.20
3492;DHT22;1760;52.480;13.422;2023-09-12T12:46:26;31.20;73.80
3492;DHT22;1760;52.480;13.422;2023-09-12T12:48:53;31.30;73.30
3492;DHT22;1760;52.480;13.422;2023-09-12T12:51:22;31.30;73.80
3492;DHT22;1760;52.480;13.422;2023-09-12T12:53:50;31.30;72.60
3492;DHT22;1760;52.480;13.422;2023-09-12T12:56:18;31.30;72.90
3492;DHT22;1760;52.480;13.422;2023-09-12T12:58:48;31.20;72.90
3492;DHT22;1760;52.480;13.422;2023-09-12T13:01:19;31.30;73.80
3492;DHT22;1760;52.480;13.422;2023-09-12T13:03:46;31.30;73.60
3492;DHT22;1760;52.480;13.422;2023-09-12T13:06:14;31.30;72.90
3492;DHT22;1760;52.480;13.422;2023-09-12T13:08:42;31.20;72.00
3492;DHT22;1760;52.480;13.422;2023-09-12T13:11:10;31.20;72.70
3492;DHT22;1760;52.480;13.422;2023-09-12T13:13:38;31.20;73.10
3492;DHT22;1760;52.480;13.422;2023-09-12T13:16:08;31.10;71.70
3492;DHT22;1760;52.480;13.422;2023-09-12T13:18:36;31.20;72.80
3492;DHT22;1760;52.480;13.422;2023-09-12T13:21:04;31.30;73.60
3492;DHT22;1760;52.480;13.422;2023-09-12T13:23:33;31.40;72.40
3492;DHT22;1760;52.480;13.422;2023-09-12T13:26:00;31.50;71.70
3492;DHT22;1760;52.480;13.422;2023-09-12T13:28:28;31.60;70.30
3492;DHT22;1760;52.480;13.422;2023-09-12T13:30:56;31.60;70.80
3492;DHT22;1760;52.480;13.422;2023-09-12T13:33:24;31.60;71.70
3492;DHT22;1760;52.480;13.422;2023-09-12T13:35:51;31.70;71.30
3492;DHT22;1760;52.480;13.422;2023-09-12T13:38:18;31.80;71.30
3492;DHT22;1760;52.480;13.422;2023-09-12T13:40:46;31.80;71.00
3492;DHT22;1760;52.480;13.422;2023-09-12T13:43:13;31.80;69.90
3492;DHT22;1760;52.480;13.422;2023-09-12T13:45:40;31.80;70.30
3492;DHT22;1760;52.480;13.422;2023-09-12T13:48:07;31.90;69.70
3492;DHT22;1760;52.480;13.422;2023-09-12T13:50:36;31.90;69.20
3492;DHT22;1760;52.480;13.422;2023-09-12T13:53:03;32.10;68.60
3492;DHT22;1760;52.480;13.422;2023-09-12T13:55:32;32.20;69.10
3492;DHT22;1760;52.480;13.422;2023-09-12T13:58:00;32.10;68.30
3492;DHT22;1760;52.480;13.422;2023-09-12T14:00:27;32.10;68.50
3492;DHT22;1760;52.480;13.422;2023-09-12T14:02:54;32.00;69.70
3492;DHT22;1760;52.480;13.422;2023-09-12T14:05:21;32.00;69.60
3492;DHT22;1760;52.480;13.422;2023-09-12T14:07:49;32.00;68.90
3492;DHT22;1760;52.480;13.422;2023-09-12T14:10:16;32.00;69.10
3492;DHT22;1760;52.480;13.422;2023-09-12T14:12:44;32.00;69.00
3492;DHT22;1760;52.480;13.422;2023-09-12T14:15:12;32.00;69.00
3492;DHT22;1760;52.480;13.422;2023-09-12T14:17:40;31.70;68.70
3492;DHT22;1760;52.480;13.422;2023-09-12T14:20:07;31.50;69.40
3492;DHT22;1760;52.480;13.422;2023-09-12T14:22:41;31.40;69.90
3492;DHT22;1760;52.480;13.422;2023-09-12T14:25:09;31.50;71.20
3492;DHT22;1760;52.480;13.422;2023-09-12T14:27:41;31.50;70.50
3492;DHT22;1760;52.480;13.422;2023-09-12T14:30:09;31.50;69.30
3492;DHT22;1760;52.480;13.422;2023-09-12T14:32:36;31.40;68.50
3492;DHT22;1760;52.480;13.422;2023-09-12T14:35:04;31.40;69.10
3492;DHT22;1760;52.480;13.422;2023-09-12T14:37:31;31.30;69.20
3492;DHT22;1760;52.480;13.422;2023-09-12T14:40:00;31.30;68.30
3492;DHT22;1760;52.480;13.422;2023-09-12T14:42:28;31.30;68.70
3492;DHT22;1760;52.480;13.422;2023-09-12T14:44:55;31.20;69.30
3492;DHT22;1760;52.480;13.422;2023-09-12T14:47:22;31.00;70.40
3492;DHT22;1760;52.480;13.422;2023-09-12T14:49:49;30.70;71.20
3492;DHT22;1760;52.480;13.422;2023-09-12T14:52:16;30.50;72.10
3492;DHT22;1760;52.480;13.422;2023-09-12T14:54:43;30.40;73.60
3492;DHT22;1760;52.480;13.422;2023-09-12T14:57:10;30.30;72.70
3492;DHT22;1760;52.480;13.422;2023-09-12T14:59:38;30.30;74.70
3492;DHT22;1760;52.480;13.422;2023-09-12T15:02:05;30.00;77.90
3492;DHT22;1760;52.480;13.422;2023-09-12T15:04:32;29.60;79.90
3492;DHT22;1760;52.480;13.422;2023-09-12T15:06:59;29.40;81.00
3492;DHT22;1760;52.480;13.422;2023-09-12T15:09:26;29.00;80.90
3492;DHT22;1760;52.480;13.422;2023-09-12T15:11:52;28.80;81.80
3492;DHT22;1760;52.480;13.422;2023-09-12T15:14:19;28.60;82.10
3492;DHT22;1760;52.480;13.422;2023-09-12T15:16:49;28.50;83.00
3492;DHT22;1760;52.480;13.422;2023-09-12T15:19:16;28.40;84.20
3492;DHT22;1760;52.480;13.422;2023-09-12T15:21:43;28.30;84.40
3492;DHT22;1760;52.480;13.422;2023-09-12T15:24:10;28.20;85.70
3492;DHT22;1760;52.480;13.422;2023-09-12T15:26:37;28.10;87.00
3492;DHT22;1760;52.480;13.422;2023-09-12T15:29:03;28.10;87.10
3492;DHT22;1760;52.480;13.422;2023-09-12T15:31:33;28.00;87.90
3492;DHT22;1760;52.480;13.422;2023-09-12T15:34:02;28.00;88.20
3492;DHT22;1760;52.480;13.422;2023-09-12T15:36:36;27.90;88.90
3492;DHT22;1760;52.480;13.422;2023-09-12T15:39:06;27.80;89.90
3492;DHT22;1760;52.480;13.422;2023-09-12T15:41:32;27.70;90.40
3492;DHT22;1760;52.480;13.422;2023-09-12T15:43:59;27.60;90.80
3492;DHT22;1760;52.480;13.422;2023-09-12T15:46:27;27.50;91.30
3492;DHT22;1760;52.480;13.422;2023-09-12T15:48:54;27.40;91.80
3492;DHT22;1760;52.480;13.422;2023-09-12T15:51:23;27.30;92.30
3492;DHT22;1760;52.480;13.422;2023-09-12T15:53:51;27.30;92.80